sensor_id;sensor_type;location;lat;lon;timestamp;pressure;altitude;pressure_sealevel;temperature;humidity
28606;BME280;46498;49.968;7.754;2023-02-15T00:00:36;98416.00;;;-1.01;100.00
28606;BME280;46498;49.968;7.754;2023-02-15T00:05:36;98407.00;;;-1.09;100.00
28606;BME280;46498;49.968;7.754;2023-02-15T00:10:37;98409.00;;;-0.97;100.00
28606;BME280;46498;49.968;7.754;2023-02-15T00:15:38;98404.00;;;-0.89;100.00
28606;BME280;46498;49.968;7.754;2023-02-15T00:20:39;98415.00;;;-0.86;100.00
28606;BME280;46498;49.968;7.754;2023-02-15T00:25:39;98399.00;;;-0.79;100.00
28606;BME280;46498;49.968;7.754;2023-02-15T00:30:40;98396.00;;;-0.64;100.00
28606;BME280;46498;49.968;7.754;2023-02-15T00:35:41;98394.00;;;-0.72;100.00
28606;BME280;46498;49.968;7.754;2023-02-15T00:40:42;98395.00;;;-0.75;100.00
28606;BME280;46498;49.968;7.754;2023-02-15T00:45:45;98398.00;;;-0.78;100.00
28606;BME280;46498;49.968;7.754;2023-02-15T00:50:48;98387.00;;;-0.70;100.00
28606;BME280;46498;49.968;7.754;2023-02-15T00:55:49;98384.00;;;-0.79;100.00
28606;BME280;46498;49.968;7.754;2023-02-15T01:00:51;98378.00;;;-0.80;100.00
28606;BME280;46498;49.968;7.754;2023-02-15T01:05:52;98378.00;;;-0.93;100.00
28606;BME280;46498;49.968;7.754;2023-02-15T01:10:54;98376.00;;;-0.99;100.00
28606;BME280;46498;49.968;7.754;2023-02-15T01:15:55;98365.00;;;-0.84;100.00
28606;BME280;46498;49.968;7.754;2023-02-15T01:20:56;98367.00;;;-0.82;100.00
28606;BME280;46498;49.968;7.754;2023-02-15T01:26:01;98366.00;;;-0.81;100.00
28606;BME280;46498;49.968;7.754;2023-02-15T01:31:13;98358.00;;;-0.70;100.00
28606;BME280;46498;49.968;7.754;2023-02-15T01:36:15;98367.00;;;-1.16;100.00
28606;BME280;46498;49.968;7.754;2023-02-15T01:41:17;98369.00;;;-0.96;100.00
28606;BME280;46498;49.968;7.754;2023-02-15T01:46:32;98363.00;;;-1.04;100.00
28606;BME280;46498;49.968;7.754;2023-02-15T01:51:37;98359.00;;;-0.98;100.00
28606;BME280;46498;49.968;7.754;2023-02-15T01:56:40;98358.00;;;-1.20;100.00
28606;BME280;46498;49.968;7.754;2023-02-15T02:01:43;98344.00;;;-1.04;100.00
28606;BME280;46498;49.968;7.754;2023-02-15T02:06:46;98344.00;;;-1.14;100.00
28606;BME280;46498;49.968;7.754;2023-02-15T02:11:49;98350.00;;;-1.18;100.00
28606;BME280;46498;49.968;7.754;2023-02-15T02:39:51;98326.00;;;-1.02;100.00
28606;BME280;46498;49.968;7.754;2023-02-15T02:45:06;98309.00;;;-0.84;100.00
28606;BME280;46498;49.968;7.754;2023-02-15T02:50:13;98318.00;;;-0.81;100.00
28606;BME280;46498;49.968;7.754;2023-02-15T03:04:50;98310.00;;;-0.84;100.00
28606;BME280;46498;49.968;7.754;2023-02-15T03:10:00;98303.00;;;-0.76;100.00
28606;BME280;46498;49.968;7.754;2023-02-15T03:15:08;98289.00;;;-0.84;100.00
28606;BME280;46498;49.968;7.754;2023-02-15T03:20:20;98290.00;;;-0.99;100.00
28606;BME280;46498;49.968;7.754;2023-02-15T03:26:27;98287.00;;;-0.94;100.00
28606;BME280;46498;49.968;7.754;2023-02-15T03:31:32;98282.00;;;-1.06;100.00
28606;BME280;46498;49.968;7.754;2023-02-15T03:36:45;98271.00;;;-1.21;100.00
28606;BME280;46498;49.968;7.754;2023-02-15T03:48:58;98269.00;;;-1.05;100.00
28606;BME280;46498;49.968;7.754;2023-02-15T03:54:10;98269.00;;;-1.07;100.00
28606;BME280;46498;49.968;7.754;2023-02-15T03:59:13;98270.00;;;-1.30;100.00
28606;BME280;46498;49.968;7.754;2023-02-15T04:04:35;98271.00;;;-1.33;100.00
28606;BME280;46498;49.968;7.754;2023-02-15T04:09:36;98272.00;;;-1.34;100.00
28606;BME280;46498;49.968;7.754;2023-02-15T04:14:55;98272.00;;;-1.17;100.00
28606;BME280;46498;49.968;7.754;2023-02-15T04:20:15;98272.00;;;-1.22;100.00
28606;BME280;46498;49.968;7.754;2023-02-15T04:25:34;98269.00;;;-1.22;100.00
28606;BME280;46498;49.968;7.754;2023-02-15T04:30:35;98276.00;;;-1.11;100.00
28606;BME280;46498;49.968;7.754;2023-02-15T04:35:35;98278.00;;;-1.15;100.00
28606;BME280;46498;49.968;7.754;2023-02-15T04:40:36;98276.00;;;-1.41;100.00
28606;BME280;46498;49.968;7.754;2023-02-15T04:45:37;98280.00;;;-1.39;100.00
28606;BME280;46498;49.968;7.754;2023-02-15T04:50:38;98272.00;;;-1.54;100.00
28606;BME280;46498;49.968;7.754;2023-02-15T04:55:39;98277.00;;;-1.37;100.00
28606;BME280;46498;49.968;7.754;2023-02-15T05:00:39;98274.00;;;-1.31;100.00
28606;BME280;46498;49.968;7.754;2023-02-15T05:05:40;98265.00;;;-1.25;100.00
28606;BME280;46498;49.968;7.754;2023-02-15T05:10:41;98264.00;;;-1.20;100.00
28606;BME280;46498;49.968;7.754;2023-02-15T05:15:47;98252.00;;;-1.11;100.00
28606;BME280;46498;49.968;7.754;2023-02-15T05:20:48;98249.00;;;-1.21;100.00
28606;BME280;46498;49.968;7.754;2023-02-15T05:25:50;98254.00;;;-1.30;100.00
28606;BME280;46498;49.968;7.754;2023-02-15T05:31:12;98251.00;;;-1.25;100.00
28606;BME280;46498;49.968;7.754;2023-02-15T05:36:13;98256.00;;;-1.12;100.00
28606;BME280;46498;49.968;7.754;2023-02-15T05:41:14;98249.00;;;-1.21;100.00
28606;BME280;46498;49.968;7.754;2023-02-15T05:46:15;98259.00;;;-1.30;100.00
28606;BME280;46498;49.968;7.754;2023-02-15T05:51:16;98253.00;;;-1.24;100.00
28606;BME280;46498;49.968;7.754;2023-02-15T05:56:17;98259.00;;;-1.27;100.00
28606;BME280;46498;49.968;7.754;2023-02-15T06:01:19;98262.00;;;-1.30;100.00
28606;BME280;46498;49.968;7.754;2023-02-15T06:06:22;98263.00;;;-1.41;100.00
28606;BME280;46498;49.968;7.754;2023-02-15T06:11:23;98270.00;;;-1.57;100.00
28606;BME280;46498;49.968;7.754;2023-02-15T06:16:24;98268.00;;;-1.44;100.00
28606;BME280;46498;49.968;7.754;2023-02-15T06:21:25;98267.00;;;-1.27;100.00
28606;BME280;46498;49.968;7.754;2023-02-15T06:26:25;98263.00;;;-1.12;100.00
28606;BME280;46498;49.968;7.754;2023-02-15T06:31:26;98269.00;;;-1.04;100.00
28606;BME280;46498;49.968;7.754;2023-02-15T06:36:28;98278.00;;;-1.32;100.00
28606;BME280;46498;49.968;7.754;2023-02-15T06:41:29;98284.00;;;-1.44;100.00
28606;BME280;46498;49.968;7.754;2023-02-15T06:46:30;98284.00;;;-1.44;100.00
28606;BME280;46498;49.968;7.754;2023-02-15T06:51:31;98282.00;;;-1.32;100.00
28606;BME280;46498;49.968;7.754;2023-02-15T06:56:32;98287.00;;;-1.49;100.00
28606;BME280;46498;49.968;7.754;2023-02-15T07:01:33;98284.00;;;-1.83;100.00
28606;BME280;46498;49.968;7.754;2023-02-15T07:06:34;98285.00;;;-1.64;100.00
28606;BME280;46498;49.968;7.754;2023-02-15T07:11:35;98283.00;;;-1.38;100.00
28606;BME280;46498;49.968;7.754;2023-02-15T07:16:55;98287.00;;;-1.39;100.00
28606;BME280;46498;49.968;7.754;2023-02-15T07:21:56;98291.00;;;-1.27;100.00
28606;BME280;46498;49.968;7.754;2023-02-15T07:26:57;98282.00;;;-1.10;100.00
28606;BME280;46498;49.968;7.754;2023-02-15T07:32:00;98287.00;;;-1.03;100.00
28606;BME280;46498;49.968;7.754;2023-02-15T07:37:01;98289.00;;;-1.09;100.00
28606;BME280;46498;49.968;7.754;2023-02-15T07:42:02;98281.00;;;-1.28;100.00
28606;BME280;46498;49.968;7.754;2023-02-15T07:47:04;98283.00;;;-1.35;100.00
28606;BME280;46498;49.968;7.754;2023-02-15T07:52:05;98277.00;;;-1.26;100.00
28606;BME280;46498;49.968;7.754;2023-02-15T07:57:06;98282.00;;;-1.43;100.00
28606;BME280;46498;49.968;7.754;2023-02-15T08:02:10;98271.00;;;-1.43;100.00
28606;BME280;46498;49.968;7.754;2023-02-15T08:07:10;98265.00;;;-1.54;100.00
28606;BME280;46498;49.968;7.754;2023-02-15T08:12:11;98264.00;;;-1.50;100.00
28606;BME280;46498;49.968;7.754;2023-02-15T08:17:12;98263.00;;;-1.31;100.00
28606;BME280;46498;49.968;7.754;2023-02-15T08:22:14;98257.00;;;-1.38;100.00
28606;BME280;46498;49.968;7.754;2023-02-15T08:27:15;98257.00;;;-1.48;100.00
28606;BME280;46498;49.968;7.754;2023-02-15T08:32:16;98255.00;;;-1.48;100.00
28606;BME280;46498;49.968;7.754;2023-02-15T08:37:17;98244.00;;;-1.67;100.00
28606;BME280;46498;49.968;7.754;2023-02-15T08:42:17;98243.00;;;-1.54;100.00
28606;BME280;46498;49.968;7.754;2023-02-15T08:47:18;98239.00;;;-1.49;100.00
28606;BME280;46498;49.968;7.754;2023-02-15T08:52:19;98244.00;;;-1.49;100.00
28606;BME280;46498;49.968;7.754;2023-02-15T08:57:20;98234.00;;;-1.31;100.00
28606;BME280;46498;49.968;7.754;2023-02-15T09:02:21;98232.00;;;-1.32;100.00
28606;BME280;46498;49.968;7.754;2023-02-15T09:07:22;98234.00;;;-1.14;100.00
28606;BME280;46498;49.968;7.754;2023-02-15T09:12:23;98230.00;;;-0.96;100.00
28606;BME280;46498;49.968;7.754;2023-02-15T09:17:24;98230.00;;;-1.03;100.00
28606;BME280;46498;49.968;7.754;2023-02-15T09:22:25;98223.00;;;-1.24;100.00
28606;BME280;46498;49.968;7.754;2023-02-15T09:27:26;98224.00;;;-1.47;100.00
28606;BME280;46498;49.968;7.754;2023-02-15T09:32:26;98235.00;;;-1.43;100.00
28606;BME280;46498;49.968;7.754;2023-02-15T09:37:27;98237.00;;;-1.24;100.00
28606;BME280;46498;49.968;7.754;2023-02-15T09:43:16;98235.00;;;-0.97;100.00
28606;BME280;46498;49.968;7.754;2023-02-15T09:48:39;98237.00;;;-1.02;100.00
28606;BME280;46498;49.968;7.754;2023-02-15T09:54:03;98253.00;;;-0.94;100.00
28606;BME280;46498;49.968;7.754;2023-02-15T09:59:27;98259.00;;;-1.30;100.00
28606;BME280;46498;49.968;7.754;2023-02-15T10:04:46;98250.00;;;-1.11;100.00
28606;BME280;46498;49.968;7.754;2023-02-15T10:11:28;98251.00;;;-1.25;100.00
28606;BME280;46498;49.968;7.754;2023-02-15T10:19:21;98256.00;;;-1.20;100.00
28606;BME280;46498;49.968;7.754;2023-02-15T10:24:35;98251.00;;;-1.27;100.00
28606;BME280;46498;49.968;7.754;2023-02-15T10:32:05;98239.00;;;-1.11;100.00
28606;BME280;46498;49.968;7.754;2023-02-15T10:37:33;98244.00;;;-1.09;100.00
28606;BME280;46498;49.968;7.754;2023-02-15T10:43:05;98239.00;;;-0.99;100.00
28606;BME280;46498;49.968;7.754;2023-02-15T10:48:44;98239.00;;;-0.82;100.00
28606;BME280;46498;49.968;7.754;2023-02-15T10:54:32;98231.00;;;-0.77;100.00
28606;BME280;46498;49.968;7.754;2023-02-15T11:00:16;98228.00;;;-0.55;100.00
28606;BME280;46498;49.968;7.754;2023-02-15T11:06:14;98225.00;;;-0.45;100.00
28606;BME280;46498;49.968;7.754;2023-02-15T11:11:32;98220.00;;;-0.35;100.00
28606;BME280;46498;49.968;7.754;2023-02-15T11:16:41;98215.00;;;-0.42;100.00
28606;BME280;46498;49.968;7.754;2023-02-15T11:21:54;98212.00;;;-0.16;100.00
28606;BME280;46498;49.968;7.754;2023-02-15T11:27:00;98211.00;;;-0.31;100.00
28606;BME280;46498;49.968;7.754;2023-02-15T11:40:02;98194.00;;;-0.33;100.00
28606;BME280;46498;49.968;7.754;2023-02-15T11:45:07;98185.00;;;-0.05;100.00
28606;BME280;46498;49.968;7.754;2023-02-15T11:50:23;98186.00;;;-0.09;100.00
28606;BME280;46498;49.968;7.754;2023-02-15T11:55:24;98179.00;;;-0.24;100.00
28606;BME280;46498;49.968;7.754;2023-02-15T12:00:40;98175.00;;;0.12;100.00
28606;BME280;46498;49.968;7.754;2023-02-15T12:05:45;98165.00;;;0.08;100.00
28606;BME280;46498;49.968;7.754;2023-02-15T12:11:34;98168.00;;;0.08;100.00
28606;BME280;46498;49.968;7.754;2023-02-15T12:16:50;98165.00;;;0.35;100.00
28606;BME280;46498;49.968;7.754;2023-02-15T12:21:52;98157.00;;;0.35;100.00
28606;BME280;46498;49.968;7.754;2023-02-15T12:27:20;98157.00;;;0.03;100.00
28606;BME280;46498;49.968;7.754;2023-02-15T12:32:25;98168.00;;;0.10;100.00
28606;BME280;46498;49.968;7.754;2023-02-15T12:37:29;98159.00;;;-0.08;100.00
28606;BME280;46498;49.968;7.754;2023-02-15T12:42:43;98151.00;;;0.11;100.00
28606;BME280;46498;49.968;7.754;2023-02-15T12:47:45;98140.00;;;-0.03;100.00
28606;BME280;46498;49.968;7.754;2023-02-15T12:52:48;98127.00;;;0.09;100.00
28606;BME280;46498;49.968;7.754;2023-02-15T12:57:49;98128.00;;;-0.10;100.00
28606;BME280;46498;49.968;7.754;2023-02-15T13:03:16;98123.00;;;0.14;100.00
28606;BME280;46498;49.968;7.754;2023-02-15T13:08:30;98100.00;;;0.13;100.00
28606;BME280;46498;49.968;7.754;2023-02-15T13:13:34;98105.00;;;0.14;100.00
28606;BME280;46498;49.968;7.754;2023-02-15T13:18:38;98105.00;;;0.43;100.00
28606;BME280;46498;49.968;7.754;2023-02-15T13:23:44;98108.00;;;0.43;100.00
28606;BME280;46498;49.968;7.754;2023-02-15T13:28:52;98099.00;;;0.66;100.00
28606;BME280;46498;49.968;7.754;2023-02-15T13:33:59;98093.00;;;0.23;100.00
28606;BME280;46498;49.968;7.754;2023-02-15T13:41:01;98083.00;;;0.19;100.00
28606;BME280;46498;49.968;7.754;2023-02-15T13:46:22;98084.00;;;0.16;100.00
28606;BME280;46498;49.968;7.754;2023-02-15T13:51:43;98094.00;;;0.19;100.00
28606;BME280;46498;49.968;7.754;2023-02-15T14:01:31;98091.00;;;0.37;100.00
28606;BME280;46498;49.968;7.754;2023-02-15T14:07:00;98088.00;;;0.44;100.00
28606;BME280;46498;49.968;7.754;2023-02-15T14:12:35;98082.00;;;0.50;100.00
28606;BME280;46498;49.968;7.754;2023-02-15T14:17:57;98084.00;;;0.50;100.00
28606;BME280;46498;49.968;7.754;2023-02-15T14:23:56;98087.00;;;0.48;100.00
28606;BME280;46498;49.968;7.754;2023-02-15T14:30:33;98075.00;;;0.70;100.00
28606;BME280;46498;49.968;7.754;2023-02-15T14:35:35;98083.00;;;0.71;100.00
28606;BME280;46498;49.968;7.754;2023-02-15T14:43:16;98078.00;;;0.54;100.00
28606;BME280;46498;49.968;7.754;2023-02-15T14:48:31;98067.00;;;0.48;100.00
28606;BME280;46498;49.968;7.754;2023-02-15T14:53:39;98062.00;;;0.48;100.00
28606;BME280;46498;49.968;7.754;2023-02-15T14:59:56;98076.00;;;0.55;100.00
28606;BME280;46498;49.968;7.754;2023-02-15T15:12:36;98058.00;;;0.66;100.00
28606;BME280;46498;49.968;7.754;2023-02-15T15:18:43;98061.00;;;0.64;100.00
28606;BME280;46498;49.968;7.754;2023-02-15T15:23:44;98061.00;;;0.40;100.00
28606;BME280;46498;49.968;7.754;2023-02-15T15:29:03;98063.00;;;0.55;100.00
28606;BME280;46498;49.968;7.754;2023-02-15T15:34:54;98049.00;;;0.51;100.00
28606;BME280;46498;49.968;7.754;2023-02-15T15:40:29;98051.00;;;0.56;100.00
28606;BME280;46498;49.968;7.754;2023-02-15T15:51:18;98062.00;;;0.65;100.00
28606;BME280;46498;49.968;7.754;2023-02-15T15:56:23;98062.00;;;0.68;100.00
28606;BME280;46498;49.968;7.754;2023-02-15T16:01:35;98059.00;;;0.68;100.00
28606;BME280;46498;49.968;7.754;2023-02-15T16:06:39;98053.00;;;0.78;100.00
28606;BME280;46498;49.968;7.754;2023-02-15T16:11:41;98051.00;;;0.94;100.00
28606;BME280;46498;49.968;7.754;2023-02-15T16:16:47;98040.00;;;0.66;100.00
28606;BME280;46498;49.968;7.754;2023-02-15T16:21:51;98047.00;;;0.65;100.00
28606;BME280;46498;49.968;7.754;2023-02-15T16:32:27;98061.00;;;0.49;100.00
28606;BME280;46498;49.968;7.754;2023-02-15T16:37:33;98061.00;;;0.57;100.00
28606;BME280;46498;49.968;7.754;2023-02-15T16:42:35;98057.00;;;0.58;100.00
28606;BME280;46498;49.968;7.754;2023-02-15T16:47:40;98059.00;;;0.68;100.00
28606;BME280;46498;49.968;7.754;2023-02-15T16:52:42;98056.00;;;0.69;100.00
28606;BME280;46498;49.968;7.754;2023-02-15T16:57:44;98064.00;;;0.63;100.00
28606;BME280;46498;49.968;7.754;2023-02-15T17:03:04;98055.00;;;0.72;100.00
28606;BME280;46498;49.968;7.754;2023-02-15T17:08:15;98049.00;;;0.70;100.00
28606;BME280;46498;49.968;7.754;2023-02-15T17:13:17;98055.00;;;0.62;100.00
28606;BME280;46498;49.968;7.754;2023-02-15T17:18:22;98055.00;;;0.70;100.00
28606;BME280;46498;49.968;7.754;2023-02-15T17:23:30;98060.00;;;0.33;100.00
28606;BME280;46498;49.968;7.754;2023-02-15T17:28:32;98071.00;;;0.45;100.00
28606;BME280;46498;49.968;7.754;2023-02-15T17:33:37;98066.00;;;0.39;100.00
28606;BME280;46498;49.968;7.754;2023-02-15T17:38:58;98065.00;;;0.53;100.00
28606;BME280;46498;49.968;7.754;2023-02-15T17:44:01;98060.00;;;0.57;100.00
28606;BME280;46498;49.968;7.754;2023-02-15T17:49:03;98062.00;;;0.43;100.00
28606;BME280;46498;49.968;7.754;2023-02-15T17:54:04;98058.00;;;0.23;100.00
28606;BME280;46498;49.968;7.754;2023-02-15T17:59:24;98061.00;;;0.13;100.00
28606;BME280;46498;49.968;7.754;2023-02-15T18:04:24;98059.00;;;0.12;100.00
28606;BME280;46498;49.968;7.754;2023-02-15T18:09:44;98059.00;;;0.14;100.00
28606;BME280;46498;49.968;7.754;2023-02-15T18:15:05;98062.00;;;0.17;100.00
28606;BME280;46498;49.968;7.754;2023-02-15T18:20:24;98061.00;;;0.25;100.00
28606;BME280;46498;49.968;7.754;2023-02-15T18:25:27;98059.00;;;0.01;100.00
28606;BME280;46498;49.968;7.754;2023-02-15T18:30:28;98054.00;;;0.19;100.00
28606;BME280;46498;49.968;7.754;2023-02-15T18:35:31;98055.00;;;0.08;100.00
28606;BME280;46498;49.968;7.754;2023-02-15T18:40:32;98059.00;;;0.04;100.00
28606;BME280;46498;49.968;7.754;2023-02-15T18:45:33;98058.00;;;0.07;100.00
28606;BME280;46498;49.968;7.754;2023-02-15T18:50:37;98053.00;;;0.30;100.00
28606;BME280;46498;49.968;7.754;2023-02-15T18:55:38;98059.00;;;0.19;100.00
28606;BME280;46498;49.968;7.754;2023-02-15T19:00:39;98053.00;;;0.13;100.00
28606;BME280;46498;49.968;7.754;2023-02-15T19:05:44;98064.00;;;0.08;100.00
28606;BME280;46498;49.968;7.754;2023-02-15T19:10:46;98060.00;;;-0.04;100.00
28606;BME280;46498;49.968;7.754;2023-02-15T19:15:47;98059.00;;;-0.25;100.00
28606;BME280;46498;49.968;7.754;2023-02-15T19:20:48;98062.00;;;-0.20;100.00
28606;BME280;46498;49.968;7.754;2023-02-15T19:25:50;98061.00;;;-0.07;100.00
28606;BME280;46498;49.968;7.754;2023-02-15T19:30:53;98066.00;;;-0.06;100.00
28606;BME280;46498;49.968;7.754;2023-02-15T19:35:54;98069.00;;;0.02;100.00
28606;BME280;46498;49.968;7.754;2023-02-15T19:41:01;98060.00;;;0.01;100.00
28606;BME280;46498;49.968;7.754;2023-02-15T19:46:04;98058.00;;;-0.09;100.00
28606;BME280;46498;49.968;7.754;2023-02-15T19:51:05;98062.00;;;-0.13;100.00
28606;BME280;46498;49.968;7.754;2023-02-15T19:56:11;98052.00;;;-0.13;100.00
28606;BME280;46498;49.968;7.754;2023-02-15T20:01:12;98048.00;;;-0.14;100.00
28606;BME280;46498;49.968;7.754;2023-02-15T20:06:13;98042.00;;;-0.16;100.00
28606;BME280;46498;49.968;7.754;2023-02-15T20:11:15;98040.00;;;-0.28;100.00
28606;BME280;46498;49.968;7.754;2023-02-15T20:16:16;98041.00;;;-0.35;100.00
28606;BME280;46498;49.968;7.754;2023-02-15T20:21:17;98047.00;;;-0.36;100.00
28606;BME280;46498;49.968;7.754;2023-02-15T20:26:19;98047.00;;;-0.51;100.00
28606;BME280;46498;49.968;7.754;2023-02-15T20:31:20;98049.00;;;-0.53;100.00
28606;BME280;46498;49.968;7.754;2023-02-15T20:36:21;98051.00;;;-0.57;100.00
28606;BME280;46498;49.968;7.754;2023-02-15T20:41:22;98047.00;;;-0.55;100.00
28606;BME280;46498;49.968;7.754;2023-02-15T20:46:35;98049.00;;;-0.58;100.00
28606;BME280;46498;49.968;7.754;2023-02-15T20:51:36;98044.00;;;-0.65;100.00
28606;BME280;46498;49.968;7.754;2023-02-15T20:56:37;98041.00;;;-0.75;100.00
28606;BME280;46498;49.968;7.754;2023-02-15T21:01:38;98043.00;;;-0.67;100.00
28606;BME280;46498;49.968;7.754;2023-02-15T21:06:39;98043.00;;;-0.63;100.00
28606;BME280;46498;49.968;7.754;2023-02-15T21:11:42;98046.00;;;-0.59;100.00
28606;BME280;46498;49.968;7.754;2023-02-15T21:16:44;98050.00;;;-0.63;100.00
28606;BME280;46498;49.968;7.754;2023-02-15T21:21:46;98057.00;;;-0.60;100.00
28606;BME280;46498;49.968;7.754;2023-02-15T21:26:48;98053.00;;;-0.61;100.00
28606;BME280;46498;49.968;7.754;2023-02-15T21:31:49;98058.00;;;-0.75;100.00
28606;BME280;46498;49.968;7.754;2023-02-15T21:36:50;98053.00;;;-0.24;100.00
28606;BME280;46498;49.968;7.754;2023-02-15T21:41:52;98053.00;;;-0.25;100.00
28606;BME280;46498;49.968;7.754;2023-02-15T21:47:24;98061.00;;;-0.49;100.00
28606;BME280;46498;49.968;7.754;2023-02-15T21:52:44;98055.00;;;-0.67;100.00
28606;BME280;46498;49.968;7.754;2023-02-15T21:57:45;98056.00;;;-0.76;100.00
28606;BME280;46498;49.968;7.754;2023-02-15T22:02:48;98043.00;;;-0.87;100.00
28606;BME280;46498;49.968;7.754;2023-02-15T22:07:49;98047.00;;;-0.88;100.00
28606;BME280;46498;49.968;7.754;2023-02-15T22:12:51;98051.00;;;-0.98;100.00
28606;BME280;46498;49.968;7.754;2023-02-15T22:17:52;98046.00;;;-1.01;100.00
28606;BME280;46498;49.968;7.754;2023-02-15T22:22:53;98043.00;;;-0.99;100.00
28606;BME280;46498;49.968;7.754;2023-02-15T22:27:54;98032.00;;;-0.95;100.00
28606;BME280;46498;49.968;7.754;2023-02-15T22:32:56;98036.00;;;-1.01;100.00
28606;BME280;46498;49.968;7.754;2023-02-15T22:37:58;98032.00;;;-1.03;100.00
28606;BME280;46498;49.968;7.754;2023-02-15T22:43:01;98035.00;;;-1.08;100.00
28606;BME280;46498;49.968;7.754;2023-02-15T22:48:03;98035.00;;;-1.28;100.00
28606;BME280;46498;49.968;7.754;2023-02-15T22:53:04;98035.00;;;-1.26;100.00
28606;BME280;46498;49.968;7.754;2023-02-15T22:58:05;98048.00;;;-1.32;100.00
28606;BME280;46498;49.968;7.754;2023-02-15T23:03:19;98048.00;;;-1.48;100.00
28606;BME280;46498;49.968;7.754;2023-02-15T23:08:20;98048.00;;;-1.54;100.00
28606;BME280;46498;49.968;7.754;2023-02-15T23:13:31;98039.00;;;-1.66;100.00
28606;BME280;46498;49.968;7.754;2023-02-15T23:18:37;98035.00;;;-1.70;100.00
28606;BME280;46498;49.968;7.754;2023-02-15T23:23:41;98042.00;;;-1.58;100.00
28606;BME280;46498;49.968;7.754;2023-02-15T23:28:43;98047.00;;;-1.59;100.00
28606;BME280;46498;49.968;7.754;2023-02-15T23:33:45;98035.00;;;-1.43;100.00
28606;BME280;46498;49.968;7.754;2023-02-15T23:38:45;98028.00;;;-1.39;100.00
28606;BME280;46498;49.968;7.754;2023-02-15T23:43:50;98031.00;;;-1.36;100.00
28606;BME280;46498;49.968;7.754;2023-02-15T23:48:53;98022.00;;;-1.35;100.00
28606;BME280;46498;49.968;7.754;2023-02-15T23:53:54;98014.00;;;-1.22;100.00
28606;BME280;46498;49.968;7.754;2023-02-15T23:58:55;98020.00;;;-1.28;100.00
